.
WxDataArchive / Data Records for 2009-08-29
2009-08-28 August 2009 2009-08-30

Data Records for Saturday, 29 August 2009

Time	Temp	Chill	HIndex	Humid	Dewpt	 Wind 	HiWind	WindDir	Rain 	Barom 
-----	----	-----	------	-----	-----	------	------	-------	-----	----- 
00:00	66.0	66.0	66.0	96	64.8	0	0	---	0.00	29.815 
00:05	66.0	66.0	66.0	96	64.8	0	0	---	0.00	29.815 
00:10	66.0	66.0	66.0	96	64.8	0	0	---	0.00	29.815 
00:15	66.0	66.0	66.0	96	64.8	0	0	---	0.00	29.806 
00:20	66.0	66.0	66.0	96	64.8	0	0	---	0.00	29.806 
00:25	65.8	65.8	65.8	96	64.6	0	0	---	0.00	29.806 
00:30	65.8	65.8	65.8	96	64.6	0	0	---	0.00	29.804 
00:35	65.8	65.8	65.8	96	64.6	0	0	---	0.00	29.804 
00:40	65.8	65.8	65.8	96	64.6	0	0	---	0.00	29.804 
00:45	65.8	65.8	65.8	96	64.6	0	0	---	0.00	29.803 
00:50	66.0	66.0	66.0	96	64.8	0	1	112	0.01	29.803 
00:55	66.0	66.0	66.0	96	64.8	0	1	112	0.00	29.803 
01:00	66.0	66.0	66.0	96	64.8	0	1	112	0.00	29.802 
01:05	65.8	65.8	65.8	96	64.6	0	1	112	0.00	29.802 
01:10	65.8	65.8	65.8	96	64.6	0	0	---	0.00	29.802 
01:15	65.8	65.8	65.8	96	64.6	0	0	---	0.00	29.800 
01:20	65.8	65.8	65.8	96	64.6	0	1	112	0.00	29.800 
01:25	65.8	65.8	65.8	96	64.6	0	1	112	0.00	29.800 
01:30	65.6	65.6	65.6	96	64.4	0	1	112	0.00	29.800 
01:35	65.6	65.6	65.6	96	64.4	0	2	112	0.00	29.800 
01:40	65.5	65.5	65.5	96	64.3	0	1	112	0.00	29.800 
01:45	65.5	65.5	65.5	96	64.3	0	1	112	0.00	29.799 
01:50	65.5	65.5	65.5	96	64.3	0	1	112	0.00	29.799 
01:55	65.5	65.5	65.5	97	64.6	1	4	112	0.00	29.799 
02:00	65.2	65.2	65.2	96	64.0	0	2	248	0.00	29.797 
02:05	65.0	65.0	65.0	96	63.8	0	1	292	0.00	29.797 
02:10	64.7	64.7	64.7	96	63.5	0	1	292	0.00	29.797 
02:15	64.5	64.5	64.5	96	63.3	0	2	292	0.00	29.796 
02:20	64.3	64.3	64.3	96	63.1	1	3	292	0.00	29.796 
02:25	64.2	64.2	64.2	96	63.0	1	3	292	0.00	29.796 
02:30	64.2	64.2	64.2	96	63.0	0	2	292	0.00	29.795 
02:35	64.0	64.0	64.0	96	62.8	0	2	292	0.00	29.795 
02:40	64.0	64.0	64.0	96	62.8	0	1	292	0.00	29.795 
02:45	64.0	64.0	64.0	96	62.8	1	2	292	0.00	29.791 
02:50	63.9	63.9	63.9	96	62.7	1	3	270	0.00	29.791 
02:55	63.9	63.9	63.9	96	62.7	1	2	292	0.00	29.791 
03:00	63.9	63.9	63.9	96	62.7	0	2	292	0.00	29.789 
03:05	63.7	63.7	63.7	96	62.5	1	2	292	0.00	29.789 
03:10	63.7	63.7	63.7	96	62.5	1	3	292	0.00	29.789 
03:15	63.7	63.7	63.7	96	62.5	1	3	292	0.00	29.789 
03:20	63.5	63.5	63.5	96	62.3	1	3	292	0.00	29.789 
03:25	63.5	63.5	63.5	96	62.3	1	3	292	0.00	29.789 
03:30	63.4	63.4	63.4	96	62.2	0	2	292	0.00	29.788 
03:35	63.4	63.4	63.4	96	62.2	1	2	292	0.00	29.788 
03:40	63.2	63.2	63.2	96	62.0	0	1	292	0.00	29.788 
03:45	63.2	63.2	63.2	96	62.0	1	2	292	0.00	29.787 
03:50	63.1	63.1	63.1	96	61.9	0	2	315	0.00	29.787 
03:55	62.9	62.9	62.9	96	61.7	1	2	315	0.00	29.787 
04:00	62.6	62.6	62.6	96	61.4	0	2	315	0.00	29.784 
04:05	62.4	62.4	62.4	96	61.2	0	3	315	0.00	29.784 
04:10	62.1	62.1	62.1	96	60.9	0	3	315	0.00	29.784 
04:15	62.0	62.0	62.0	96	60.8	1	3	315	0.00	29.789 
04:20	61.6	61.6	61.6	96	60.4	1	3	292	0.00	29.789 
04:25	61.5	61.5	61.5	96	60.3	0	2	292	0.00	29.789 
04:30	61.3	61.3	61.3	96	60.1	0	2	292	0.00	29.786 
04:35	61.0	61.0	61.0	96	59.8	0	1	292	0.00	29.786 
04:40	61.0	61.0	61.0	96	59.8	0	2	292	0.00	29.786 
04:45	60.9	60.9	60.9	96	59.7	0	1	292	0.00	29.790 
04:50	60.9	60.9	60.9	96	59.7	0	1	292	0.00	29.790 
04:55	61.0	61.0	61.0	96	59.8	0	1	292	0.00	29.790 
05:00	61.0	61.0	61.0	96	59.8	0	1	292	0.00	29.785 
05:05	61.2	61.2	61.2	96	60.0	0	2	292	0.00	29.785 
05:10	61.2	61.2	61.2	96	60.0	0	2	292	0.00	29.785 
05:15	61.0	61.0	61.0	96	59.8	0	2	292	0.00	29.791 
05:20	61.0	61.0	61.0	96	59.8	0	2	292	0.00	29.791 
05:25	60.9	60.9	60.9	96	59.7	0	2	292	0.00	29.791 
05:30	60.7	60.7	60.7	96	59.6	0	2	292	0.00	29.793 
05:35	60.5	60.5	60.5	96	59.4	0	2	292	0.00	29.793 
05:40	60.4	60.4	60.4	96	59.3	1	2	292	0.00	29.793 
05:45	60.1	60.1	60.1	96	59.0	0	2	292	0.00	29.795 
05:50	60.1	60.1	60.1	96	59.0	0	2	292	0.00	29.795 
05:55	59.9	59.9	59.9	96	58.8	0	1	292	0.00	29.795 
06:00	59.8	59.8	59.8	96	58.7	0	1	292	0.00	29.793 
06:05	59.6	59.6	59.6	96	58.5	1	3	292	0.00	29.793 
06:10	59.8	59.8	59.8	96	58.7	1	4	292	0.00	29.793 
06:15	59.8	59.8	59.8	96	58.7	1	4	292	0.00	29.798 
06:20	59.6	59.6	59.6	96	58.5	0	3	292	0.00	29.798 
06:25	59.6	59.6	59.6	96	58.5	0	2	315	0.00	29.798 
06:30	59.5	59.5	59.5	96	58.4	0	1	315	0.00	29.796 
06:35	59.5	59.5	59.5	96	58.4	0	1	315	0.00	29.796 
06:40	59.3	59.3	59.3	96	58.2	0	1	315	0.00	29.796 
06:45	59.2	59.2	59.2	96	58.1	0	1	315	0.00	29.796 
06:50	59.2	59.2	59.2	96	58.1	0	1	315	0.00	29.796 
06:55	59.0	59.0	59.0	96	57.9	0	0	---	0.00	29.796 
07:00	59.2	59.2	59.2	96	58.1	0	1	315	0.00	29.800 
07:05	59.3	59.3	59.3	96	58.2	0	0	---	0.00	29.800 
07:10	59.5	59.5	59.5	96	58.4	0	1	315	0.00	29.800 
07:15	59.6	59.6	59.6	96	58.5	0	1	315	0.00	29.801 
07:20	59.9	59.9	59.9	96	58.8	0	0	---	0.00	29.801 
07:25	59.9	59.9	59.9	96	58.8	0	1	315	0.00	29.801 
07:30	60.1	60.1	60.1	96	59.0	0	1	315	0.00	29.805 
07:35	60.2	60.2	60.2	96	59.1	0	2	315	0.00	29.805 
07:40	60.2	60.2	60.2	96	59.1	0	2	315	0.00	29.805 
07:45	60.2	60.2	60.2	96	59.1	0	1	315	0.00	29.807 
07:50	60.4	60.4	60.4	96	59.3	0	1	315	0.00	29.807 
07:55	60.4	60.4	60.4	96	59.3	0	2	315	0.00	29.807 
08:00	60.4	60.4	60.4	96	59.3	0	1	315	0.00	29.809 
08:05	60.5	60.5	60.5	96	59.4	0	2	315	0.00	29.809 
08:10	60.5	60.5	60.5	96	59.4	0	2	315	0.00	29.809 
08:15	60.7	60.7	60.7	96	59.6	1	3	315	0.00	29.812 
08:20	60.7	60.7	60.7	96	59.6	0	3	315	0.00	29.812 
08:25	60.7	60.7	60.7	96	59.6	0	2	315	0.00	29.812 
08:30	60.9	60.9	60.9	96	59.7	0	2	315	0.00	29.813 
08:35	60.9	60.9	60.9	96	59.7	0	2	315	0.00	29.813 
08:40	61.0	61.0	61.0	96	59.8	0	2	315	0.00	29.813 
08:45	61.2	61.2	61.2	96	60.0	0	2	315	0.00	29.811 
08:50	61.3	61.3	61.3	96	60.1	0	2	315	0.00	29.811 
08:55	61.3	61.3	61.3	96	60.1	0	1	315	0.00	29.811 
09:00	61.3	61.3	61.3	96	60.1	0	1	315	0.00	29.812 
09:05	61.3	61.3	61.3	96	60.1	0	1	315	0.00	29.812 
09:10	61.3	61.3	61.3	96	60.1	1	3	315	0.00	29.812 
09:15	61.5	61.5	61.5	96	60.3	1	3	315	0.00	29.810 
09:20	61.0	61.0	61.0	96	59.8	1	4	338	0.00	29.810 
09:25	61.0	61.0	61.0	95	59.6	1	4	338	0.00	29.810 
09:30	61.3	61.3	61.3	95	59.9	1	3	338	0.00	29.814 
09:35	61.5	61.5	61.5	94	59.8	1	4	270	0.00	29.814 
09:40	61.6	61.6	61.6	94	59.9	1	3	248	0.00	29.814 
09:45	61.8	61.8	61.8	93	59.8	1	3	248	0.00	29.809 
09:50	62.1	62.1	62.1	92	59.7	0	2	248	0.00	29.809 
09:55	62.4	62.4	62.4	92	60.0	1	2	248	0.00	29.809 
10:00	63.1	63.1	63.1	90	60.1	1	3	248	0.00	29.807 
10:05	63.4	63.4	63.4	88	59.8	2	5	248	0.00	29.807 
10:10	63.4	63.4	63.4	86	59.1	1	3	270	0.00	29.807 
10:15	63.2	63.2	63.2	86	58.9	1	3	270	0.00	29.809 
10:20	63.4	63.4	63.4	86	59.1	1	3	270	0.00	29.809 
10:25	63.4	63.4	63.4	85	58.8	2	4	270	0.00	29.809 
10:30	63.5	63.5	63.5	84	58.6	1	3	338	0.00	29.811 
10:35	63.7	63.7	63.7	83	58.4	1	4	270	0.00	29.811 
10:40	64.2	64.2	64.2	84	59.3	1	4	270	0.00	29.811 
10:45	65.0	65.0	65.0	81	59.0	2	4	270	0.00	29.814 
10:50	65.5	65.5	65.5	81	59.5	1	3	270	0.00	29.814 
10:55	65.3	65.3	65.3	78	58.3	2	5	292	0.00	29.814 
11:00	65.3	65.3	65.3	79	58.6	2	4	292	0.00	29.817 
11:05	65.8	65.8	65.8	77	58.4	2	5	270	0.00	29.817 
11:10	66.4	66.4	66.4	75	58.2	2	5	270	0.00	29.817 
11:15	66.8	66.8	66.8	73	57.9	2	5	315	0.00	29.816 
11:20	67.1	67.1	67.1	74	58.5	2	6	292	0.00	29.816 
11:25	66.9	66.9	66.9	72	57.6	3	5	270	0.00	29.816 
11:30	67.6	67.6	67.6	71	57.9	1	4	315	0.00	29.814 
11:35	67.9	67.9	67.9	69	57.3	2	5	270	0.00	29.814 
11:40	68.3	68.3	68.3	71	58.5	2	4	270	0.00	29.814 
11:45	68.4	68.4	68.4	67	57.0	2	4	270	0.00	29.816 
11:50	68.6	68.6	68.6	68	57.6	2	4	292	0.00	29.816 
11:55	68.9	68.9	68.9	68	57.9	2	4	270	0.00	29.816 
12:00	68.4	68.4	68.4	64	55.7	2	5	270	0.00	29.814 
12:05	68.1	68.1	68.1	66	56.3	2	4	270	0.00	29.814 
12:10	68.1	68.1	68.1	65	55.9	2	5	292	0.00	29.814 
12:15	68.4	68.4	68.4	64	55.7	3	7	270	0.00	29.812 
12:20	69.3	69.3	69.3	65	57.0	2	5	270	0.00	29.812 
12:25	69.8	69.8	69.8	62	56.2	3	6	270	0.00	29.812 
12:30	69.8	69.8	69.8	61	55.7	3	5	270	0.00	29.809 
12:35	69.3	69.3	69.3	61	55.3	3	5	270	0.00	29.809 
12:40	69.4	69.4	69.4	63	56.2	3	6	270	0.00	29.809 
12:45	70.3	70.3	70.3	63	57.1	2	4	292	0.00	29.804 
12:50	70.9	70.9	70.9	58	55.4	3	6	270	0.00	29.804 
12:55	70.3	70.3	70.3	56	53.8	4	9	270	0.00	29.804 
13:00	69.1	69.1	69.1	58	53.7	3	5	270	0.00	29.808 
13:05	68.8	68.8	68.8	61	54.8	2	5	270	0.00	29.808 
13:10	69.3	69.3	69.3	65	57.0	2	4	315	0.00	29.808 
13:15	70.3	70.3	70.3	59	55.3	2	5	292	0.00	29.804 
13:20	70.3	70.3	70.3	54	52.9	3	6	270	0.00	29.804 
13:25	69.8	69.8	69.8	56	53.4	3	5	270	0.00	29.804 
13:30	69.1	69.1	69.1	58	53.7	2	5	292	0.00	29.806 
13:35	68.9	68.9	68.9	61	54.9	1	3	315	0.00	29.806 
13:40	68.9	68.9	68.9	61	54.9	1	3	315	0.00	29.806 
13:45	69.6	69.6	69.6	59	54.6	2	5	270	0.00	29.804 
13:50	70.3	70.3	70.3	58	54.8	2	5	270	0.00	29.804 
13:55	71.1	71.1	71.1	59	56.0	2	5	270	0.00	29.804 
14:00	70.9	70.9	70.9	59	55.8	2	5	270	0.00	29.801 
14:05	70.3	70.3	70.3	62	56.7	2	5	270	0.00	29.801 
14:10	69.6	69.6	69.6	58	54.2	2	4	270	0.00	29.801 
14:15	69.1	69.1	69.1	60	54.6	2	6	292	0.00	29.808 
14:20	68.9	68.9	68.9	61	54.9	3	5	315	0.00	29.808 
14:25	69.3	69.3	69.3	62	55.7	3	6	270	0.00	29.808 
14:30	69.9	69.9	69.9	58	54.4	2	6	270	0.00	29.807 
14:35	70.4	70.4	70.4	57	54.4	3	6	270	0.00	29.807 
14:40	70.8	70.8	70.8	58	55.3	2	5	270	0.00	29.807 
14:45	71.3	71.3	71.3	58	55.7	2	5	270	0.00	29.805 
14:50	71.5	71.5	71.5	55	54.5	3	6	292	0.00	29.805 
14:55	71.6	71.6	71.6	54	54.1	3	6	270	0.00	29.805 
15:00	71.6	71.6	71.6	51	52.5	3	5	270	0.00	29.808 
15:05	70.6	70.6	70.6	54	53.1	2	5	270	0.00	29.808 
15:10	70.6	70.6	70.6	53	52.6	2	5	270	0.00	29.808 
15:15	70.4	70.4	70.4	50	50.9	2	4	270	0.00	29.809 
15:20	70.6	70.6	70.6	53	52.6	1	4	315	0.00	29.809 
15:25	70.4	70.4	70.4	54	52.9	2	5	292	0.00	29.809 
15:30	70.8	70.8	70.8	53	52.8	3	6	270	0.00	29.805 
15:35	71.1	71.1	71.1	53	53.1	3	6	270	0.00	29.805 
15:40	70.6	70.6	70.6	55	53.6	3	7	315	0.00	29.805 
15:45	70.9	70.9	70.9	58	55.4	3	5	292	0.00	29.806 
15:50	71.3	71.3	71.3	59	56.2	3	9	270	0.00	29.806 
15:55	71.1	71.1	71.1	57	55.1	2	6	270	0.00	29.806 
16:00	70.4	70.4	70.4	58	54.9	2	5	292	0.00	29.808 
16:05	70.4	70.4	70.4	57	54.4	2	6	315	0.00	29.808 
16:10	69.9	69.9	69.9	58	54.4	2	6	315	0.00	29.808 
16:15	70.3	70.3	70.3	59	55.3	2	5	315	0.00	29.812 
16:20	70.4	70.4	70.4	60	55.8	3	6	270	0.00	29.812 
16:25	70.3	70.3	70.3	58	54.8	2	6	315	0.00	29.812 
16:30	70.1	70.1	70.1	58	54.6	3	7	315	0.00	29.817 
16:35	69.9	69.9	69.9	58	54.4	3	7	270	0.00	29.817 
16:40	69.1	69.1	69.1	59	54.2	3	7	270	0.00	29.817 
16:45	69.1	69.1	69.1	61	55.1	2	5	270	0.00	29.819 
16:50	69.1	69.1	69.1	59	54.2	2	6	270	0.00	29.819 
16:55	69.1	69.1	69.1	59	54.2	3	7	315	0.00	29.819 
17:00	69.3	69.3	69.3	58	53.9	3	7	270	0.00	29.825 
17:05	69.1	69.1	69.1	58	53.7	3	7	270	0.00	29.825 
17:10	69.1	69.1	69.1	59	54.2	2	6	292	0.00	29.825 
17:15	68.8	68.8	68.8	58	53.4	3	6	315	0.00	29.835 
17:20	68.6	68.6	68.6	61	54.6	3	6	292	0.00	29.835 
17:25	68.8	68.8	68.8	58	53.4	3	6	292	0.00	29.835 
17:30	68.4	68.4	68.4	59	53.5	2	4	270	0.00	29.840 
17:35	68.4	68.4	68.4	59	53.5	2	4	315	0.00	29.840 
17:40	68.3	68.3	68.3	57	52.5	2	5	270	0.00	29.840 
17:45	67.6	67.6	67.6	58	52.3	2	4	315	0.00	29.848 
17:50	67.6	67.6	67.6	59	52.8	2	6	315	0.00	29.848 
17:55	67.4	67.4	67.4	59	52.6	2	5	315	0.00	29.848 
18:00	67.4	67.4	67.4	60	53.0	2	6	315	0.00	29.856 
18:05	67.1	67.1	67.1	61	53.2	2	5	315	0.00	29.856 
18:10	66.9	66.9	66.9	62	53.4	1	5	315	0.00	29.856 
18:15	66.6	66.6	66.6	60	52.3	2	6	315	0.00	29.860 
18:20	66.3	66.3	66.3	61	52.4	2	4	315	0.00	29.860 
18:25	66.3	66.3	66.3	61	52.4	1	4	292	0.00	29.860 
18:30	66.3	66.3	66.3	61	52.4	1	3	292	0.00	29.867 
18:35	66.3	66.3	66.3	59	51.5	1	5	292	0.00	29.867 
18:40	65.8	65.8	65.8	59	51.1	2	6	315	0.00	29.867 
18:45	65.6	65.6	65.6	60	51.3	2	5	315	0.00	29.873 
18:50	65.6	65.6	65.6	61	51.8	1	3	315	0.00	29.873 
18:55	65.5	65.5	65.5	60	51.2	1	3	315	0.00	29.873 
19:00	65.5	65.5	65.5	61	51.7	0	2	315	0.00	29.874 
19:05	65.3	65.3	65.3	61	51.5	1	4	315	0.00	29.874 
19:10	65.0	65.0	65.0	61	51.2	2	4	292	0.00	29.874 
19:15	64.7	64.7	64.7	61	50.9	1	4	315	0.00	29.875 
19:20	64.5	64.5	64.5	62	51.2	1	4	315	0.00	29.875 
19:25	64.2	64.2	64.2	62	50.9	1	5	292	0.00	29.875 
19:30	64.0	64.0	64.0	62	50.7	1	4	315	0.00	29.875 
19:35	63.9	63.9	63.9	62	50.6	1	3	292	0.00	29.875 
19:40	63.5	63.5	63.5	62	50.2	2	5	292	0.00	29.875 
19:45	63.4	63.4	63.4	62	50.1	1	3	338	0.00	29.877 
19:50	63.2	63.2	63.2	62	50.0	0	2	315	0.00	29.877 
19:55	63.1	63.1	63.1	62	49.9	0	1	315	0.00	29.877 
20:00	62.7	62.7	62.7	64	50.3	0	2	315	0.00	29.882 
20:05	62.6	62.6	62.6	64	50.2	0	1	315	0.00	29.882 
20:10	62.6	62.6	62.6	65	50.7	0	1	315	0.00	29.882 
20:15	62.4	62.4	62.4	65	50.5	0	1	315	0.00	29.881 
20:20	62.3	62.3	62.3	66	50.8	0	1	315	0.00	29.881 
20:25	62.1	62.1	62.1	66	50.6	0	1	315	0.00	29.881 
20:30	62.0	62.0	62.0	67	50.9	0	1	315	0.00	29.886 
20:35	61.6	61.6	61.6	68	50.9	0	1	315	0.00	29.886 
20:40	61.5	61.5	61.5	68	50.8	0	1	315	0.00	29.886 
20:45	61.3	61.3	61.3	68	50.6	0	0	---	0.00	29.891 
20:50	61.2	61.2	61.2	69	50.9	0	0	---	0.00	29.891 
20:55	60.9	60.9	60.9	70	51.0	0	0	---	0.00	29.891 
21:00	60.7	60.7	60.7	71	51.2	0	0	---	0.00	29.893 
21:05	60.4	60.4	60.4	72	51.3	0	0	---	0.00	29.893 
21:10	60.1	60.1	60.1	72	51.0	0	1	315	0.00	29.893 
21:15	59.9	59.9	59.9	73	51.2	0	0	---	0.00	29.900 
21:20	59.8	59.8	59.8	73	51.1	0	1	315	0.00	29.900 
21:25	59.8	59.8	59.8	73	51.1	0	0	---	0.00	29.900 
21:30	59.6	59.6	59.6	74	51.3	0	1	315	0.00	29.907 
21:35	59.6	59.6	59.6	74	51.3	0	1	315	0.00	29.907 
21:40	59.6	59.6	59.6	75	51.7	0	1	315	0.00	29.907 
21:45	59.5	59.5	59.5	75	51.6	0	1	315	0.00	29.909 
21:50	59.3	59.3	59.3	76	51.7	0	0	---	0.00	29.909 
21:55	59.2	59.2	59.2	77	52.0	0	1	315	0.00	29.909 
22:00	58.9	58.9	58.9	77	51.7	0	0	---	0.00	29.910 
22:05	58.7	58.7	58.7	78	51.9	0	0	---	0.00	29.910 
22:10	58.6	58.6	58.6	78	51.8	0	0	---	0.00	29.910 
22:15	58.4	58.4	58.4	79	51.9	0	0	---	0.00	29.914 
22:20	58.3	58.3	58.3	80	52.2	0	0	---	0.00	29.914 
22:25	58.1	58.1	58.1	80	52.0	0	0	---	0.00	29.914 
22:30	58.0	58.0	58.0	81	52.2	0	0	---	0.00	29.914 
22:35	57.6	57.6	57.6	81	51.8	0	0	---	0.00	29.914 
22:40	57.5	57.5	57.5	82	52.0	0	0	---	0.00	29.914 
22:45	57.3	57.3	57.3	82	51.9	0	0	---	0.00	29.912 
22:50	57.2	57.2	57.2	83	52.1	0	0	---	0.00	29.912 
22:55	56.9	56.9	56.9	83	51.8	0	0	---	0.00	29.912 
23:00	56.7	56.7	56.7	84	51.9	0	0	---	0.00	29.912 
23:05	56.5	56.5	56.5	84	51.7	0	0	---	0.00	29.912 
23:10	56.3	56.3	56.3	84	51.5	0	0	---	0.00	29.912 
23:15	56.2	56.2	56.2	85	51.7	0	0	---	0.00	29.912 
23:20	56.0	56.0	56.0	86	51.9	0	0	---	0.00	29.912 
23:25	56.0	56.0	56.0	86	51.9	0	0	---	0.00	29.912 
23:30	56.2	56.2	56.2	86	52.1	0	0	---	0.00	29.910 
23:35	56.2	56.2	56.2	85	51.7	0	0	---	0.00	29.910 
23:40	56.2	56.2	56.2	85	51.7	0	0	---	0.00	29.910 
23:45	56.0	56.0	56.0	85	51.6	0	0	---	0.00	29.908 
23:50	55.9	55.9	55.9	85	51.5	0	0	---	0.00	29.908 
23:55	55.7	55.7	55.7	85	51.3	0	1	315	0.00	29.908 

CoCoRaHS
IN-AL-39
A2 Web Hosting
Creative Commons License
GoDaddy
search engine by freefind advanced

loaded 2018-11-18 11:32:35 • last modified 2010-11-18 10:43:29
Privacy PolicyDisclaimer
• wx.awcolley.com is powered by PmWiki v.2002016 •
• all content (unless otherwise noted) © 2018 A W Colley